Time;durP1;ratioP1;P1;durP2;ratioP2;P2;SDS_P1;SDS_P2;PMS_P1;PMS_P2;Temp;Humidity;BMP_temperature;BMP_pressure;BME280_temperature;BME280_humidity;BME280_pressure;Samples;Min_cycle;Max_cycle;Signal;HPM_P1;HPM_P2
2023/03/11 00:02:23;;;;;;;25.45;19.70;;;;;;;;;;5087788;28;20039;-77
2023/03/11 00:04:48;;;;;;;47.72;35.20;;;;;;;;;;5091001;28;20138;-78
2023/03/11 00:07:13;;;;;;;13.32;11.25;;;;;;;;;;5092872;28;20103;-77
2023/03/11 00:09:39;;;;;;;27.98;17.80;;;;;;;;;;5082376;28;20020;-78
2023/03/11 00:12:04;;;;;;;59.10;34.95;;;;;;;;;;5092987;28;20031;-76
2023/03/11 00:14:30;;;;;;;49.75;29.52;;;;;;;;;;5085434;28;20431;-75
2023/03/11 00:16:55;;;;;;;36.20;20.55;;;;;;;;;;5086568;28;20027;-76
2023/03/11 00:19:20;;;;;;;30.10;17.38;;;;;;;;;;5085248;28;20019;-75
2023/03/11 00:21:45;;;;;;;18.95;10.30;;;;;;;;;;5093751;28;20086;-76
2023/03/11 00:24:13;;;;;;;11.13;7.07;;;;;;;;;;5092052;28;20031;-75
2023/03/11 00:26:38;;;;;;;10.18;5.82;;;;;;;;;;5090295;28;20031;-74
2023/03/11 00:29:04;;;;;;;7.05;5.32;;;;;;;;;;5089763;28;20038;-75
2023/03/11 00:31:29;;;;;;;7.32;5.75;;;;;;;;;;5093472;28;20033;-77
2023/03/11 00:33:56;;;;;;;25.00;22.20;;;;;;;;;;5094261;28;20031;-77
2023/03/11 00:36:32;;;;;;;18.70;16.58;;;;;;;;;;5090859;28;20035;-75
2023/03/11 00:38:58;;;;;;;3.30;3.00;;;;;;;;;;5090784;28;20028;-75
2023/03/11 00:41:23;;;;;;;2.80;2.28;;;;;;;;;;5093890;28;20038;-75
2023/03/11 00:43:49;;;;;;;2.85;2.65;;;;;;;;;;5088113;28;20107;-75
2023/03/11 00:46:14;;;;;;;2.25;1.67;;;;;;;;;;5082350;28;20034;-75
2023/03/11 00:48:39;;;;;;;15.70;9.93;;;;;;;;;;5088908;28;20454;-75
2023/03/11 00:51:12;;;;;;;13.00;9.68;;;;;;;;;;5091481;28;20027;-75
2023/03/11 00:53:37;;;;;;;18.98;13.75;;;;;;;;;;5088627;28;20035;-77
2023/03/11 00:56:06;;;;;;;15.43;10.45;;;;;;;;;;5093797;28;20031;-75
2023/03/11 00:58:32;;;;;;;4.20;3.78;;;;;;;;;;5084571;28;20028;-75
2023/03/11 01:00:57;;;;;;;3.95;2.60;;;;;;;;;;5086754;28;20036;-74
2023/03/11 01:03:22;;;;;;;4.95;4.10;;;;;;;;;;5081439;28;20039;-74
2023/03/11 01:05:48;;;;;;;5.20;4.25;;;;;;;;;;5092939;28;20056;-75
2023/03/11 01:08:13;;;;;;;8.45;5.13;;;;;;;;;;5093123;28;20024;-76
2023/03/11 01:10:38;;;;;;;4.50;3.42;;;;;;;;;;5091596;28;20346;-74
2023/03/11 01:13:04;;;;;;;30.40;20.27;;;;;;;;;;5090258;28;20414;-75
2023/03/11 01:15:30;;;;;;;30.00;21.45;;;;;;;;;;5089293;28;20106;-75
2023/03/11 01:17:56;;;;;;;57.92;39.78;;;;;;;;;;5092942;28;20438;-76
2023/03/11 01:20:21;;;;;;;37.70;27.05;;;;;;;;;;5082418;28;20069;-75
2023/03/11 01:22:47;;;;;;;18.65;13.38;;;;;;;;;;5087957;28;20027;-74
2023/03/11 01:25:14;;;;;;;9.55;6.18;;;;;;;;;;5078720;28;20035;-75
2023/03/11 01:27:39;;;;;;;3.13;2.60;;;;;;;;;;5086251;28;20476;-76
2023/03/11 01:30:05;;;;;;;4.30;3.78;;;;;;;;;;5085348;28;20044;-76
2023/03/11 01:32:30;;;;;;;5.82;4.57;;;;;;;;;;5084955;28;20381;-76
2023/03/11 01:34:56;;;;;;;2.03;1.60;;;;;;;;;;5078049;28;20035;-75
2023/03/11 01:37:21;;;;;;;2.30;1.90;;;;;;;;;;5085163;28;20020;-75
2023/03/11 01:39:46;;;;;;;1.30;1.13;;;;;;;;;;5082637;28;20032;-75
2023/03/11 01:42:11;;;;;;;4.22;2.38;;;;;;;;;;5093456;28;20022;-75
2023/03/11 01:44:37;;;;;;;5.20;4.70;;;;;;;;;;5081597;28;20406;-76
2023/03/11 01:47:02;;;;;;;4.65;4.13;;;;;;;;;;5092231;28;20009;-75
2023/03/11 01:49:27;;;;;;;3.55;1.77;;;;;;;;;;5090908;28;20028;-76
2023/03/11 01:51:59;;;;;;;1.65;1.52;;;;;;;;;;5091724;28;20031;-74
2023/03/11 01:54:26;;;;;;;2.70;2.35;;;;;;;;;;5089439;28;20023;-76
2023/03/11 01:56:52;;;;;;;4.32;2.40;;;;;;;;;;5082190;28;20025;-75
2023/03/11 01:59:21;;;;;;;2.03;1.80;;;;;;;;;;5087470;28;20024;-75
2023/03/11 02:02:01;;;;;;;2.80;1.80;;;;;;;;;;5081125;28;20039;-75
2023/03/11 02:04:27;;;;;;;2.00;1.80;;;;;;;;;;5087182;28;20036;-74
2023/03/11 02:06:53;;;;;;;2.13;1.77;;;;;;;;;;5084254;28;20020;-78
2023/03/11 02:09:19;;;;;;;1.52;1.42;;;;;;;;;;5091681;28;20082;-77
2023/03/11 02:11:44;;;;;;;2.33;1.63;;;;;;;;;;5084152;28;21285;-76
2023/03/11 02:14:09;;;;;;;2.05;1.50;;;;;;;;;;5090350;28;20504;-76
2023/03/11 02:16:35;;;;;;;2.22;2.00;;;;;;;;;;5090771;28;20095;-76
2023/03/11 02:19:08;;;;;;;1.15;1.10;;;;;;;;;;5091733;28;20388;-76
2023/03/11 02:21:33;;;;;;;6.70;1.50;;;;;;;;;;5089247;28;20023;-77
2023/03/11 02:24:03;;;;;;;1.50;1.40;;;;;;;;;;5089382;28;20042;-75
2023/03/11 02:26:36;;;;;;;2.78;2.20;;;;;;;;;;5085930;28;20031;-75
2023/03/11 02:29:03;;;;;;;4.60;2.22;;;;;;;;;;5081708;28;20028;-74
2023/03/11 02:31:28;;;;;;;4.57;3.30;;;;;;;;;;5093004;28;20030;-75
2023/03/11 02:33:55;;;;;;;4.55;3.08;;;;;;;;;;5092188;28;20035;-76
2023/03/11 02:36:37;;;;;;;3.00;1.80;;;;;;;;;;5095278;28;20031;-76
2023/03/11 02:39:03;;;;;;;2.63;2.28;;;;;;;;;;5092875;28;20085;-75
2023/03/11 02:41:30;;;;;;;3.85;1.95;;;;;;;;;;5093879;28;20125;-76
2023/03/11 02:43:56;;;;;;;3.05;2.10;;;;;;;;;;5084122;28;20538;-76
2023/03/11 02:46:21;;;;;;;3.70;2.10;;;;;;;;;;5095728;28;20031;-75
2023/03/11 02:48:46;;;;;;;3.50;2.30;;;;;;;;;;5091812;28;20096;-75
2023/03/11 02:51:12;;;;;;;4.72;2.28;;;;;;;;;;5094566;28;20351;-76
2023/03/11 02:53:48;;;;;;;4.05;2.30;;;;;;;;;;5067263;28;20127;-76
2023/03/11 02:56:13;;;;;;;3.63;2.38;;;;;;;;;;5092489;28;20020;-73
2023/03/11 02:58:38;;;;;;;4.93;2.08;;;;;;;;;;5092313;28;20027;-76
2023/03/11 03:01:04;;;;;;;3.00;2.70;;;;;;;;;;5082742;28;20110;-73
2023/03/11 03:03:29;;;;;;;4.00;2.53;;;;;;;;;;5093568;28;20421;-75
2023/03/11 03:05:54;;;;;;;3.30;2.60;;;;;;;;;;5097714;28;20035;-74
2023/03/11 03:08:20;;;;;;;4.45;2.78;;;;;;;;;;5091904;28;20028;-75
2023/03/11 03:10:45;;;;;;;2.97;2.63;;;;;;;;;;5085446;28;20119;-74
2023/03/11 03:13:11;;;;;;;3.33;2.95;;;;;;;;;;5098288;28;20024;-73
2023/03/11 03:15:36;;;;;;;4.43;3.25;;;;;;;;;;5095806;28;20031;-74
2023/03/11 03:18:01;;;;;;;3.55;2.78;;;;;;;;;;5092354;28;20035;-73
2023/03/11 03:20:27;;;;;;;3.28;2.58;;;;;;;;;;5083849;28;20027;-74
2023/03/11 03:22:53;;;;;;;2.22;2.03;;;;;;;;;;5088721;28;20031;-74
2023/03/11 03:25:18;;;;;;;3.22;1.98;;;;;;;;;;5092989;28;20027;-75
2023/03/11 03:27:44;;;;;;;2.17;1.73;;;;;;;;;;5095459;28;20350;-74
2023/03/11 03:30:09;;;;;;;3.92;1.70;;;;;;;;;;5097122;28;20472;-74
2023/03/11 03:32:35;;;;;;;1.92;1.75;;;;;;;;;;5092300;28;20023;-74
2023/03/11 03:35:01;;;;;;;2.03;1.77;;;;;;;;;;5091662;28;20177;-73
2023/03/11 03:37:26;;;;;;;3.90;3.38;;;;;;;;;;5091951;28;20027;-73
2023/03/11 03:39:53;;;;;;;2.10;2.00;;;;;;;;;;5093801;28;20028;-75
2023/03/11 03:42:19;;;;;;;6.20;4.50;;;;;;;;;;5094241;28;20028;-75
2023/03/11 03:44:44;;;;;;;3.80;2.75;;;;;;;;;;5093024;28;20050;-75
2023/03/11 03:47:10;;;;;;;2.35;1.98;;;;;;;;;;5069516;28;20038;-75
2023/03/11 03:49:36;;;;;;;3.95;2.10;;;;;;;;;;5085117;28;20028;-74
2023/03/11 03:52:01;;;;;;;2.83;2.42;;;;;;;;;;5091393;28;20034;-74
2023/03/11 03:54:26;;;;;;;3.63;2.42;;;;;;;;;;5093309;28;20020;-74
2023/03/11 03:56:52;;;;;;;2.10;1.90;;;;;;;;;;5091945;28;20024;-73
2023/03/11 03:59:17;;;;;;;3.47;2.08;;;;;;;;;;5094363;28;20023;-74
2023/03/11 04:01:42;;;;;;;2.33;1.70;;;;;;;;;;5093261;28;21119;-75
2023/03/11 04:04:08;;;;;;;2.28;1.88;;;;;;;;;;5091369;28;20131;-72
2023/03/11 04:06:33;;;;;;;3.05;2.00;;;;;;;;;;5095579;28;20348;-75
2023/03/11 04:08:58;;;;;;;2.17;1.80;;;;;;;;;;5091127;28;20061;-77
2023/03/11 04:11:24;;;;;;;1.98;1.83;;;;;;;;;;5092644;28;20042;-75
2023/03/11 04:13:49;;;;;;;7.32;4.63;;;;;;;;;;5079755;28;20122;-75
2023/03/11 04:16:16;;;;;;;5.40;3.30;;;;;;;;;;5091626;28;20115;-75
2023/03/11 04:18:41;;;;;;;5.82;4.07;;;;;;;;;;5093559;28;20024;-75
2023/03/11 04:21:07;;;;;;;6.28;4.70;;;;;;;;;;5089708;28;20034;-75
2023/03/11 04:23:32;;;;;;;4.93;4.07;;;;;;;;;;5093733;28;20028;-74
2023/03/11 04:25:57;;;;;;;8.05;3.67;;;;;;;;;;5090431;28;20020;-75
2023/03/11 04:28:23;;;;;;;3.22;2.13;;;;;;;;;;5083155;28;20031;-74
2023/03/11 04:30:48;;;;;;;2.60;1.70;;;;;;;;;;5089382;28;20130;-74
2023/03/11 04:33:13;;;;;;;1.25;1.00;;;;;;;;;;5093537;28;20049;-74
2023/03/11 04:35:39;;;;;;;1.60;1.50;;;;;;;;;;5091036;28;20024;-73
2023/03/11 04:38:04;;;;;;;4.38;2.60;;;;;;;;;;5091754;28;20096;-74
2023/03/11 04:40:29;;;;;;;5.53;3.30;;;;;;;;;;5084492;28;20074;-75
2023/03/11 04:42:55;;;;;;;9.43;6.68;;;;;;;;;;5092816;28;20035;-73
2023/03/11 04:45:20;;;;;;;5.97;4.25;;;;;;;;;;5088702;28;20023;-74
2023/03/11 04:47:51;;;;;;;9.52;6.53;;;;;;;;;;5092803;28;20564;-76
2023/03/11 04:50:17;;;;;;;8.55;6.35;;;;;;;;;;5092052;28;20028;-74
2023/03/11 04:52:42;;;;;;;2.72;2.03;;;;;;;;;;5092897;28;20039;-77
2023/03/11 04:55:08;;;;;;;3.20;1.70;;;;;;;;;;5091606;28;20084;-75
2023/03/11 04:57:33;;;;;;;2.22;1.60;;;;;;;;;;5092354;28;20359;-74
2023/03/11 04:59:59;;;;;;;4.18;2.28;;;;;;;;;;5084552;28;20036;-76
2023/03/11 05:02:24;;;;;;;3.58;2.10;;;;;;;;;;5086107;28;20426;-74
2023/03/11 05:04:49;;;;;;;1.92;1.45;;;;;;;;;;5092630;28;20048;-76
2023/03/11 05:07:15;;;;;;;1.85;1.30;;;;;;;;;;5090537;28;20141;-76
2023/03/11 05:09:40;;;;;;;1.85;1.73;;;;;;;;;;5092737;28;20433;-76
2023/03/11 05:12:05;;;;;;;3.28;2.50;;;;;;;;;;5092155;28;20099;-76
2023/03/11 05:14:31;;;;;;;4.30;3.00;;;;;;;;;;5091218;28;20035;-76
2023/03/11 05:16:56;;;;;;;5.07;3.40;;;;;;;;;;5086617;28;20046;-75
2023/03/11 05:19:30;;;;;;;3.47;3.05;;;;;;;;;;5092374;28;20587;-77
2023/03/11 05:21:56;;;;;;;3.83;3.30;;;;;;;;;;5088325;28;20019;-75
2023/03/11 05:24:21;;;;;;;2.83;2.00;;;;;;;;;;5090900;28;20034;-77
2023/03/11 05:26:47;;;;;;;3.60;2.92;;;;;;;;;;5093167;28;20154;-76
2023/03/11 05:29:12;;;;;;;28.65;18.98;;;;;;;;;;5090748;28;20023;-77
2023/03/11 05:31:38;;;;;;;31.23;21.25;;;;;;;;;;5084545;28;20028;-77
2023/03/11 05:34:03;;;;;;;67.57;42.05;;;;;;;;;;5077614;28;20078;-77
2023/03/11 05:36:28;;;;;;;36.78;25.15;;;;;;;;;;5087220;28;20340;-77
2023/03/11 05:38:54;;;;;;;9.85;6.72;;;;;;;;;;5081334;28;20034;-74
2023/03/11 05:41:19;;;;;;;5.43;3.83;;;;;;;;;;5091978;28;20030;-75
2023/03/11 05:43:45;;;;;;;7.00;4.95;;;;;;;;;;5089102;28;20035;-75
2023/03/11 05:46:10;;;;;;;14.68;10.32;;;;;;;;;;5089318;28;20033;-76
2023/03/11 05:48:36;;;;;;;22.95;19.92;;;;;;;;;;5088421;28;20346;-75
2023/03/11 05:51:05;;;;;;;215.90;135.63;;;;;;;;;;5078960;28;20369;-75
2023/03/11 05:53:30;;;;;;;163.77;113.35;;;;;;;;;;5090005;28;20466;-76
2023/03/11 05:55:56;;;;;;;74.85;53.10;;;;;;;;;;5089838;28;20028;-76
2023/03/11 05:58:21;;;;;;;188.88;142.90;;;;;;;;;;5081252;28;20036;-76
2023/03/11 06:00:47;;;;;;;72.28;57.45;;;;;;;;;;5069664;28;20632;-75
2023/03/11 06:03:12;;;;;;;70.07;53.88;;;;;;;;;;5070250;28;20023;-75
2023/03/11 06:05:43;;;;;;;49.20;35.20;;;;;;;;;;5073570;28;20076;-75
2023/03/11 06:08:08;;;;;;;29.20;24.42;;;;;;;;;;5070424;28;20020;-76
2023/03/11 06:10:33;;;;;;;40.42;34.65;;;;;;;;;;5066049;28;20042;-76
2023/03/11 06:12:58;;;;;;;18.17;14.93;;;;;;;;;;5075473;28;20462;-74
2023/03/11 06:15:24;;;;;;;14.73;12.55;;;;;;;;;;5052592;28;20127;-75
2023/03/11 06:17:49;;;;;;;7.95;6.40;;;;;;;;;;5080961;28;20051;-75
2023/03/11 06:20:15;;;;;;;8.00;6.88;;;;;;;;;;5078624;28;20342;-73
2023/03/11 06:22:40;;;;;;;12.00;9.82;;;;;;;;;;5086090;28;20350;-74
2023/03/11 06:25:06;;;;;;;24.77;19.77;;;;;;;;;;5090854;28;20162;-73
2023/03/11 06:27:32;;;;;;;15.18;12.50;;;;;;;;;;5089560;28;20102;-74
2023/03/11 06:29:57;;;;;;;43.42;28.90;;;;;;;;;;5085756;28;20111;-73
2023/03/11 06:32:22;;;;;;;41.78;27.15;;;;;;;;;;5089721;28;20032;-75
2023/03/11 06:34:51;;;;;;;48.15;32.67;;;;;;;;;;5091279;28;20036;-74
2023/03/11 06:37:16;;;;;;;24.52;17.15;;;;;;;;;;5091415;28;20062;-76
2023/03/11 06:39:42;;;;;;;13.77;11.93;;;;;;;;;;5091249;28;20048;-75
2023/03/11 06:42:10;;;;;;;14.70;9.30;;;;;;;;;;5088617;28;21073;-75
2023/03/11 06:44:35;;;;;;;13.73;12.32;;;;;;;;;;5091937;28;20038;-73
2023/03/11 06:47:01;;;;;;;9.57;8.68;;;;;;;;;;5080525;28;20090;-73
2023/03/11 06:49:27;;;;;;;9.88;7.93;;;;;;;;;;5080776;28;20111;-74
2023/03/11 06:51:52;;;;;;;5.00;4.50;;;;;;;;;;5078636;28;20665;-74
2023/03/11 06:54:17;;;;;;;7.05;6.25;;;;;;;;;;5085991;28;20105;-75
2023/03/11 06:56:43;;;;;;;6.40;5.80;;;;;;;;;;5077282;28;20107;-74
2023/03/11 06:59:08;;;;;;;7.10;6.40;;;;;;;;;;5077857;28;20027;-74
2023/03/11 07:01:34;;;;;;;6.10;5.43;;;;;;;;;;5088116;28;20027;-75
2023/03/11 07:03:59;;;;;;;4.85;3.83;;;;;;;;;;5088176;28;20521;-75
2023/03/11 07:06:25;;;;;;;5.13;3.58;;;;;;;;;;5055900;28;20032;-74
2023/03/11 07:08:51;;;;;;;4.45;3.90;;;;;;;;;;5079284;28;20081;-73
2023/03/11 07:11:23;;;;;;;6.65;5.45;;;;;;;;;;5082709;28;20447;-75
2023/03/11 07:13:49;;;;;;;7.13;5.38;;;;;;;;;;5070092;28;20113;-75
2023/03/11 07:16:16;;;;;;;4.00;3.70;;;;;;;;;;5071153;28;20036;-74
2023/03/11 07:18:41;;;;;;;7.05;6.40;;;;;;;;;;5066485;28;20024;-72
2023/03/11 07:21:07;;;;;;;10.40;9.23;;;;;;;;;;5068307;28;20284;-75
2023/03/11 07:23:33;;;;;;;4.38;3.97;;;;;;;;;;5071093;28;20024;-74
2023/03/11 07:25:58;;;;;;;4.68;4.28;;;;;;;;;;5068702;28;20031;-75
2023/03/11 07:28:24;;;;;;;2.13;2.03;;;;;;;;;;5070984;28;20020;-75
2023/03/11 07:30:50;;;;;;;3.65;3.20;;;;;;;;;;5069977;28;20028;-75
2023/03/11 07:33:15;;;;;;;3.17;2.92;;;;;;;;;;5084126;28;20031;-78
2023/03/11 07:35:41;;;;;;;11.07;10.07;;;;;;;;;;5079111;28;20056;-76
2023/03/11 07:38:06;;;;;;;17.98;16.38;;;;;;;;;;5067731;28;20340;-75
2023/03/11 07:40:32;;;;;;;11.15;10.02;;;;;;;;;;5053931;28;20446;-74
2023/03/11 07:42:57;;;;;;;7.38;6.63;;;;;;;;;;5076418;28;20582;-75
2023/03/11 07:45:22;;;;;;;6.90;6.20;;;;;;;;;;5085350;28;20063;-73
2023/03/11 07:47:48;;;;;;;6.38;5.78;;;;;;;;;;5077698;28;20032;-76
2023/03/11 07:50:13;;;;;;;6.55;5.63;;;;;;;;;;5073066;28;20019;-74
2023/03/11 07:52:38;;;;;;;4.80;4.30;;;;;;;;;;5077482;28;20024;-72
2023/03/11 07:55:04;;;;;;;7.43;6.32;;;;;;;;;;5080439;28;20123;-73
2023/03/11 07:57:29;;;;;;;7.70;7.00;;;;;;;;;;5095306;28;20423;-75
2023/03/11 07:59:54;;;;;;;10.07;9.13;;;;;;;;;;5089815;28;20024;-74
2023/03/11 08:02:20;;;;;;;9.00;8.20;;;;;;;;;;5094419;28;20016;-73
2023/03/11 08:04:45;;;;;;;8.25;7.00;;;;;;;;;;5087121;28;20819;-75
2023/03/11 08:07:10;;;;;;;9.18;8.38;;;;;;;;;;5092401;28;20468;-74
2023/03/11 08:09:36;;;;;;;13.65;12.40;;;;;;;;;;5090928;28;20453;-73
2023/03/11 08:12:01;;;;;;;7.90;7.20;;;;;;;;;;5092868;28;20077;-73
2023/03/11 08:14:26;;;;;;;6.80;6.10;;;;;;;;;;5089829;28;20038;-73
2023/03/11 08:16:52;;;;;;;7.40;6.70;;;;;;;;;;5093728;28;20028;-73
2023/03/11 08:19:17;;;;;;;5.65;5.15;;;;;;;;;;5084097;28;20020;-75
2023/03/11 08:21:42;;;;;;;15.13;13.50;;;;;;;;;;5083853;28;20057;-73
2023/03/11 08:24:09;;;;;;;26.25;23.58;;;;;;;;;;5082876;28;20102;-74
2023/03/11 08:26:34;;;;;;;23.60;21.20;;;;;;;;;;5086206;28;20450;-73
2023/03/11 08:29:00;;;;;;;31.83;28.63;;;;;;;;;;5087893;28;20034;-73
2023/03/11 08:31:29;;;;;;;31.60;28.50;;;;;;;;;;5091285;28;20028;-74
2023/03/11 08:33:59;;;;;;;26.60;23.80;;;;;;;;;;5092791;28;20035;-73
2023/03/11 08:36:25;;;;;;;10.32;9.32;;;;;;;;;;5092896;28;20016;-73
2023/03/11 08:38:50;;;;;;;13.88;12.68;;;;;;;;;;5092703;28;20038;-73
2023/03/11 08:41:16;;;;;;;4.55;4.10;;;;;;;;;;5090196;28;20028;-73
2023/03/11 08:43:41;;;;;;;8.23;7.43;;;;;;;;;;5092533;28;20061;-75
2023/03/11 08:46:07;;;;;;;7.07;6.47;;;;;;;;;;5091800;28;20110;-74
2023/03/11 08:48:32;;;;;;;4.82;4.32;;;;;;;;;;5085015;28;20027;-75
2023/03/11 08:50:58;;;;;;;4.20;2.60;;;;;;;;;;5092361;28;20398;-72
2023/03/11 08:53:23;;;;;;;13.32;12.02;;;;;;;;;;5092866;28;20011;-76
2023/03/11 08:55:49;;;;;;;3.67;3.33;;;;;;;;;;5094780;28;20023;-75
2023/03/11 08:58:14;;;;;;;6.05;4.20;;;;;;;;;;5093540;28;20094;-72
2023/03/11 09:00:40;;;;;;;7.20;5.95;;;;;;;;;;5089555;28;20031;-74
2023/03/11 09:03:05;;;;;;;8.82;8.00;;;;;;;;;;5092541;28;20448;-74
2023/03/11 09:05:30;;;;;;;6.80;6.10;;;;;;;;;;5088830;28;20411;-73
2023/03/11 09:07:55;;;;;;;13.00;11.68;;;;;;;;;;5091319;28;20055;-76
2023/03/11 09:10:21;;;;;;;5.68;4.60;;;;;;;;;;5091058;28;20099;-72
2023/03/11 09:12:46;;;;;;;2.60;2.40;;;;;;;;;;5093189;28;20458;-75
2023/03/11 10:08:11;;;;;;;27.58;18.73;;;;;;;;;;5120498;27;21380;-78
2023/03/11 10:10:40;;;;;;;34.88;22.55;;;;;;;;;;5113558;28;20126;-78
2023/03/11 10:13:35;;;;;;;38.63;23.70;;;;;;;;;;5112721;28;20031;-79
2023/03/11 10:16:03;;;;;;;47.75;33.15;;;;;;;;;;5098201;28;20073;-79
2023/03/11 10:18:58;;;;;;;18.40;13.15;;;;;;;;;;5110714;28;20054;-80
2023/03/11 10:21:23;;;;;;;32.70;22.55;;;;;;;;;;5047602;28;20033;-79
2023/03/11 10:24:15;;;;;;;35.30;24.48;;;;;;;;;;5051028;28;20371;-78
2023/03/11 10:26:40;;;;;;;23.42;16.67;;;;;;;;;;5050229;28;20111;-78
2023/03/11 10:29:24;;;;;;;32.25;23.55;;;;;;;;;;5048898;28;20037;-78
2023/03/11 10:32:13;;;;;;;22.35;17.52;;;;;;;;;;5046074;28;20119;-78
2023/03/11 10:35:00;;;;;;;28.13;20.08;;;;;;;;;;5043144;28;20148;-77
2023/03/11 10:37:28;;;;;;;24.92;17.35;;;;;;;;;;5050960;28;20451;-77
2023/03/11 10:39:54;;;;;;;20.08;15.20;;;;;;;;;;5048307;28;20444;-78
2023/03/11 10:42:22;;;;;;;25.75;18.98;;;;;;;;;;5048867;28;20039;-80
2023/03/11 10:44:47;;;;;;;12.75;10.32;;;;;;;;;;5049653;28;20029;-79
2023/03/11 10:47:16;;;;;;;10.00;7.90;;;;;;;;;;5034062;28;21435;-78
2023/03/11 10:49:41;;;;;;;14.57;12.40;;;;;;;;;;5051170;28;20037;-79
2023/03/11 10:52:06;;;;;;;16.80;13.88;;;;;;;;;;5049103;28;20031;-79
2023/03/11 10:54:34;;;;;;;12.80;11.32;;;;;;;;;;5046254;28;20118;-78
2023/03/11 10:57:04;;;;;;;7.55;6.72;;;;;;;;;;5057812;28;20039;-80
2023/03/11 10:59:32;;;;;;;7.53;6.72;;;;;;;;;;5110999;27;20026;-79
2023/03/11 11:02:02;;;;;;;8.10;7.30;;;;;;;;;;5113348;28;20015;-80
2023/03/11 11:04:27;;;;;;;;;;;;;;;;;;5112868;27;20983;-79
2023/03/11 11:06:52;;;;;;;14.07;11.93;;;;;;;;;;5109639;28;20073;-80
2023/03/11 11:09:21;;;;;;;11.25;9.57;;;;;;;;;;5099590;28;20020;-80
2023/03/11 11:12:03;;;;;;;14.75;12.57;;;;;;;;;;5096281;28;20399;-81
2023/03/11 11:14:47;;;;;;;11.70;10.50;;;;;;;;;;5098227;28;20028;-80
2023/03/11 11:17:16;;;;;;;10.95;8.32;;;;;;;;;;5098241;28;20042;-79
2023/03/11 11:19:43;;;;;;;9.15;8.23;;;;;;;;;;5097970;28;20056;-79
2023/03/11 11:22:12;;;;;;;10.82;8.93;;;;;;;;;;5096499;28;20027;-79
2023/03/11 11:24:42;;;;;;;15.77;12.95;;;;;;;;;;5095600;28;20062;-78
2023/03/11 11:27:24;;;;;;;9.73;8.73;;;;;;;;;;5099583;28;20043;-77
2023/03/11 11:30:12;;;;;;;13.75;11.73;;;;;;;;;;5099442;28;20020;-78
2023/03/11 11:32:37;;;;;;;12.57;9.75;;;;;;;;;;5096980;28;20048;-82
2023/03/11 11:35:05;;;;;;;11.95;9.05;;;;;;;;;;5101271;28;20059;-82
2023/03/11 11:37:32;;;;;;;16.48;10.70;;;;;;;;;;5096996;28;20818;-79
2023/03/11 11:40:10;;;;;;;11.95;9.43;;;;;;;;;;5097742;28;20027;-80
2023/03/11 11:42:37;;;;;;;16.05;12.70;;;;;;;;;;5095767;28;20055;-78
2023/03/11 11:45:06;;;;;;;16.33;13.65;;;;;;;;;;5096227;28;20179;-78
2023/03/11 11:47:35;;;;;;;15.23;12.80;;;;;;;;;;5096557;28;20174;-79
2023/03/11 11:50:03;;;;;;;12.10;10.30;;;;;;;;;;5098537;28;20034;-80
2023/03/11 11:52:35;;;;;;;18.02;15.18;;;;;;;;;;5098460;28;20039;-79
2023/03/11 11:55:02;;;;;;;19.05;14.23;;;;;;;;;;5093511;28;20031;-80
2023/03/11 11:57:28;;;;;;;23.50;19.73;;;;;;;;;;5095096;28;20019;-80
2023/03/11 11:59:53;;;;;;;20.58;17.90;;;;;;;;;;5096302;28;20355;-78
2023/03/11 12:02:38;;;;;;;12.82;10.55;;;;;;;;;;5097495;28;20031;-79
2023/03/11 12:05:05;;;;;;;16.73;14.40;;;;;;;;;;5096030;28;20135;-78
2023/03/11 12:07:33;;;;;;;22.05;19.60;;;;;;;;;;5096105;28;20074;-80
2023/03/11 12:09:58;;;;;;;25.42;22.77;;;;;;;;;;5096110;28;20023;-78
2023/03/11 12:12:23;;;;;;;9.63;8.73;;;;;;;;;;5094598;28;20454;-78
2023/03/11 12:15:00;;;;;;;10.82;9.75;;;;;;;;;;5096476;28;20106;-78
2023/03/11 12:17:26;;;;;;;9.55;8.65;;;;;;;;;;5097070;28;20055;-78
2023/03/11 12:20:10;;;;;;;10.20;9.23;;;;;;;;;;5096900;28;20358;-79
2023/03/11 12:22:35;;;;;;;9.45;8.55;;;;;;;;;;5096369;28;20020;-80
2023/03/11 12:25:00;;;;;;;10.85;9.80;;;;;;;;;;5097631;28;20019;-78
2023/03/11 12:27:32;;;;;;;8.10;7.40;;;;;;;;;;5098694;28;20401;-79
2023/03/11 12:30:00;;;;;;;9.85;8.48;;;;;;;;;;5098834;28;20042;-78
2023/03/11 12:32:43;;;;;;;10.75;9.75;;;;;;;;;;5095774;28;20067;-78
2023/03/11 12:35:17;;;;;;;7.55;6.65;;;;;;;;;;5096418;28;20077;-76
2023/03/11 12:37:43;;;;;;;13.80;12.27;;;;;;;;;;5099115;28;20081;-78
2023/03/11 12:40:27;;;;;;;11.63;10.00;;;;;;;;;;5096331;28;20016;-78
2023/03/11 12:42:52;;;;;;;12.95;10.52;;;;;;;;;;5094508;28;20615;-78
2023/03/11 12:45:36;;;;;;;6.93;6.07;;;;;;;;;;5093580;28;20134;-78
2023/03/11 12:48:20;;;;;;;10.50;8.82;;;;;;;;;;5095706;28;20066;-80
2023/03/11 12:50:46;;;;;;;21.10;18.88;;;;;;;;;;5098695;28;20070;-77
2023/03/11 12:53:15;;;;;;;22.20;19.83;;;;;;;;;;5093825;28;20059;-79
2023/03/11 12:56:00;;;;;;;16.48;12.27;;;;;;;;;;5097606;28;20035;-78
2023/03/11 12:58:34;;;;;;;14.02;11.80;;;;;;;;;;5093228;28;20023;-78
2023/03/11 13:01:10;;;;;;;14.48;12.45;;;;;;;;;;5096201;28;20052;-78
2023/03/11 13:03:44;;;;;;;12.23;11.02;;;;;;;;;;5094762;27;20987;-77
2023/03/11 13:06:24;;;;;;;14.00;11.50;;;;;;;;;;5095503;28;20071;-78
2023/03/11 13:08:53;;;;;;;15.02;11.10;;;;;;;;;;5095944;28;20027;-80
2023/03/11 13:11:27;;;;;;;16.95;13.07;;;;;;;;;;5094601;28;20103;-78
2023/03/11 13:14:07;;;;;;;17.38;13.20;;;;;;;;;;5095864;28;20027;-79
2023/03/11 13:16:36;;;;;;;14.43;9.82;;;;;;;;;;5095661;28;20032;-78
2023/03/11 13:19:20;;;;;;;10.57;8.35;;;;;;;;;;5093448;28;20031;-79
2023/03/11 13:21:45;;;;;;;17.05;12.65;;;;;;;;;;5094254;28;20027;-79
2023/03/11 13:24:17;;;;;;;13.82;11.63;;;;;;;;;;5093911;28;20027;-78
2023/03/11 13:26:47;;;;;;;14.52;11.18;;;;;;;;;;5096490;28;20032;-77
2023/03/11 13:29:18;;;;;;;12.57;10.27;;;;;;;;;;5096758;28;20031;-78
2023/03/11 13:32:02;;;;;;;15.23;11.50;;;;;;;;;;5094035;28;20092;-79
2023/03/11 13:34:28;;;;;;;14.50;10.75;;;;;;;;;;5096497;28;20020;-80
2023/03/11 13:37:12;;;;;;;13.93;10.65;;;;;;;;;;5097394;28;20035;-79
2023/03/11 13:39:53;;;;;;;12.80;9.75;;;;;;;;;;5093680;28;20064;-80
2023/03/11 13:42:25;;;;;;;13.02;9.85;;;;;;;;;;5093442;28;20028;-78
2023/03/11 13:44:50;;;;;;;23.52;17.42;;;;;;;;;;5096177;28;20031;-81
2023/03/11 13:47:16;;;;;;;21.25;14.02;;;;;;;;;;5093334;28;20333;-80
2023/03/11 13:49:49;;;;;;;19.25;13.02;;;;;;;;;;5096373;28;20509;-79
2023/03/11 13:52:25;;;;;;;17.73;12.98;;;;;;;;;;5092378;28;20151;-79
2023/03/11 13:55:09;;;;;;;29.42;19.00;;;;;;;;;;5096638;28;20032;-78
2023/03/11 13:57:35;;;;;;;31.02;21.58;;;;;;;;;;5096397;28;20474;-80
2023/03/11 14:00:15;;;;;;;33.47;22.15;;;;;;;;;;5093898;28;20020;-80
2023/03/11 14:02:44;;;;;;;13.90;9.02;;;;;;;;;;5095922;28;20031;-79
2023/03/11 14:05:12;;;;;;;22.80;16.60;;;;;;;;;;5093652;28;20023;-79
2023/03/11 14:07:38;;;;;;;33.72;24.23;;;;;;;;;;5092980;28;20279;-79
2023/03/11 14:10:19;;;;;;;26.60;18.92;;;;;;;;;;5095435;28;20058;-80
2023/03/11 14:12:45;;;;;;;6.38;4.95;;;;;;;;;;5095339;28;20036;-79
2023/03/11 14:15:16;;;;;;;30.83;20.35;;;;;;;;;;5092021;28;20031;-79
2023/03/11 14:17:42;;;;;;;10.35;8.68;;;;;;;;;;5093074;28;20035;-79
2023/03/11 14:20:15;;;;;;;15.95;12.70;;;;;;;;;;5095122;28;20027;-80
2023/03/11 14:22:42;;;;;;;6.07;4.30;;;;;;;;;;5094370;28;20026;-80
2023/03/11 14:25:09;;;;;;;4.35;3.45;;;;;;;;;;5094217;28;20024;-79
2023/03/11 14:27:36;;;;;;;13.57;10.27;;;;;;;;;;5096300;28;20494;-79
2023/03/11 14:30:01;;;;;;;15.38;11.05;;;;;;;;;;5096761;28;20447;-81
2023/03/11 14:32:31;;;;;;;15.80;10.82;;;;;;;;;;5093582;28;20020;-78
2023/03/11 14:34:56;;;;;;;;;;;;;;;;;;5095010;28;20020;-78
2023/03/11 14:37:25;;;;;;;8.02;6.55;;;;;;;;;;5096902;28;19920;-79
2023/03/11 14:39:50;;;;;;;14.23;10.80;;;;;;;;;;5095803;28;20416;-79
2023/03/11 14:42:18;;;;;;;24.35;16.40;;;;;;;;;;5095554;28;20028;-79
2023/03/11 14:45:10;;;;;;;35.65;27.13;;;;;;;;;;5098397;28;20028;-78
2023/03/11 14:47:44;;;;;;;32.55;25.10;;;;;;;;;;5078570;28;20135;-79
2023/03/11 14:50:15;;;;;;;46.80;35.55;;;;;;;;;;5098793;28;20492;-77
2023/03/11 14:52:42;;;;;;;80.22;59.22;;;;;;;;;;5085802;28;20022;-77
2023/03/11 14:55:19;;;;;;;26.33;19.73;;;;;;;;;;5093667;28;20024;-80
2023/03/11 14:57:46;;;;;;;18.33;14.15;;;;;;;;;;5092449;28;20424;-79
2023/03/11 15:00:16;;;;;;;19.73;15.30;;;;;;;;;;5094065;28;20380;-78
2023/03/11 15:02:57;;;;;;;38.25;24.58;;;;;;;;;;5086378;28;20019;-81
2023/03/11 15:05:43;;;;;;;30.50;21.02;;;;;;;;;;5080415;28;20027;-79
2023/03/11 15:08:08;;;;;;;46.60;31.65;;;;;;;;;;5075839;28;20047;-76
2023/03/11 15:10:35;;;;;;;32.13;23.65;;;;;;;;;;5084750;28;20029;-78
2023/03/11 15:13:09;;;;;;;57.10;37.47;;;;;;;;;;5083748;28;20024;-78
2023/03/11 15:15:34;;;;;;;25.50;17.13;;;;;;;;;;5084804;28;20020;-78
2023/03/11 15:18:00;;;;;;;23.50;18.55;;;;;;;;;;5080662;28;20089;-78
2023/03/11 15:20:29;;;;;;;34.63;26.27;;;;;;;;;;5086696;28;20023;-78
2023/03/11 15:23:02;;;;;;;28.13;21.10;;;;;;;;;;5086061;28;20023;-79
2023/03/11 15:25:29;;;;;;;59.80;41.88;;;;;;;;;;5081462;28;20119;-78
2023/03/11 15:27:55;;;;;;;18.48;14.32;;;;;;;;;;5084404;28;20053;-77
2023/03/11 15:30:23;;;;;;;21.67;18.73;;;;;;;;;;5081949;28;20096;-78